sensor_id;sensor_type;location;lat;lon;timestamp;pressure;altitude;pressure_sealevel;temperature;humidity
53719;BME280;39616;48.872;9.390;2023-05-14T00:01:52;98349.34;;;10.16;100.00
53719;BME280;39616;48.872;9.390;2023-05-14T00:04:22;98342.34;;;10.15;100.00
53719;BME280;39616;48.872;9.390;2023-05-14T00:06:53;98347.47;;;10.16;100.00
53719;BME280;39616;48.872;9.390;2023-05-14T00:09:23;98348.28;;;10.17;100.00
53719;BME280;39616;48.872;9.390;2023-05-14T00:11:53;98339.34;;;10.16;100.00
53719;BME280;39616;48.872;9.390;2023-05-14T00:14:23;98334.50;;;10.13;100.00
53719;BME280;39616;48.872;9.390;2023-05-14T00:16:54;98333.75;;;10.08;100.00
53719;BME280;39616;48.872;9.390;2023-05-14T00:19:25;98332.25;;;10.02;100.00
53719;BME280;39616;48.872;9.390;2023-05-14T00:21:55;98320.66;;;9.96;100.00
53719;BME280;39616;48.872;9.390;2023-05-14T00:24:25;98320.44;;;9.92;100.00
53719;BME280;39616;48.872;9.390;2023-05-14T00:26:56;98319.72;;;9.87;100.00
53719;BME280;39616;48.872;9.390;2023-05-14T00:29:26;98318.38;;;9.84;100.00
53719;BME280;39616;48.872;9.390;2023-05-14T00:31:57;98312.53;;;9.77;100.00
53719;BME280;39616;48.872;9.390;2023-05-14T00:34:27;98320.94;;;9.76;100.00
53719;BME280;39616;48.872;9.390;2023-05-14T00:36:57;98322.69;;;9.66;100.00
53719;BME280;39616;48.872;9.390;2023-05-14T00:39:28;98314.31;;;9.63;100.00
53719;BME280;39616;48.872;9.390;2023-05-14T00:41:58;98313.53;;;9.62;100.00
53719;BME280;39616;48.872;9.390;2023-05-14T00:44:28;98312.50;;;9.58;100.00
53719;BME280;39616;48.872;9.390;2023-05-14T00:46:59;98318.50;;;9.55;100.00
53719;BME280;39616;48.872;9.390;2023-05-14T00:49:29;98315.84;;;9.50;100.00
53719;BME280;39616;48.872;9.390;2023-05-14T00:51:59;98312.09;;;9.46;100.00
53719;BME280;39616;48.872;9.390;2023-05-14T00:54:30;98311.59;;;9.44;100.00
53719;BME280;39616;48.872;9.390;2023-05-14T00:57:01;98308.66;;;9.40;100.00
53719;BME280;39616;48.872;9.390;2023-05-14T00:59:31;98300.53;;;9.40;100.00
53719;BME280;39616;48.872;9.390;2023-05-14T01:02:01;98298.16;;;9.34;100.00
53719;BME280;39616;48.872;9.390;2023-05-14T01:04:32;98301.00;;;9.24;100.00
53719;BME280;39616;48.872;9.390;2023-05-14T01:10:08;98303.28;;;9.11;100.00
53719;BME280;39616;48.872;9.390;2023-05-14T01:13:03;98300.41;;;9.03;100.00
53719;BME280;39616;48.872;9.390;2023-05-14T01:15:36;98303.16;;;8.98;100.00
53719;BME280;39616;48.872;9.390;2023-05-14T01:18:10;98297.28;;;8.90;100.00
53719;BME280;39616;48.872;9.390;2023-05-14T01:20:44;98293.28;;;8.88;100.00
53719;BME280;39616;48.872;9.390;2023-05-14T01:23:14;98297.03;;;8.87;100.00
53719;BME280;39616;48.872;9.390;2023-05-14T01:25:45;98288.69;;;8.83;100.00
53719;BME280;39616;48.872;9.390;2023-05-14T01:28:19;98286.28;;;8.82;100.00
53719;BME280;39616;48.872;9.390;2023-05-14T01:30:57;98289.56;;;8.79;100.00
53719;BME280;39616;48.872;9.390;2023-05-14T01:33:32;98283.91;;;8.75;100.00
53719;BME280;39616;48.872;9.390;2023-05-14T01:36:03;98288.81;;;8.73;100.00
53719;BME280;39616;48.872;9.390;2023-05-14T01:38:34;98294.22;;;8.73;100.00
53719;BME280;39616;48.872;9.390;2023-05-14T01:41:05;98289.88;;;8.72;100.00
53719;BME280;39616;48.872;9.390;2023-05-14T01:43:35;98294.00;;;8.69;100.00
53719;BME280;39616;48.872;9.390;2023-05-14T01:46:06;98297.81;;;8.63;100.00
53719;BME280;39616;48.872;9.390;2023-05-14T01:48:37;98285.09;;;8.64;100.00
53719;BME280;39616;48.872;9.390;2023-05-14T01:51:07;98292.97;;;8.60;100.00
53719;BME280;39616;48.872;9.390;2023-05-14T01:53:37;98282.97;;;8.61;100.00
53719;BME280;39616;48.872;9.390;2023-05-14T01:56:08;98292.13;;;8.65;100.00
53719;BME280;39616;48.872;9.390;2023-05-14T01:58:38;98287.53;;;8.65;100.00
53719;BME280;39616;48.872;9.390;2023-05-14T02:01:08;98288.28;;;8.71;100.00
53719;BME280;39616;48.872;9.390;2023-05-14T02:03:38;98283.44;;;8.68;100.00
53719;BME280;39616;48.872;9.390;2023-05-14T02:06:09;98289.19;;;8.61;100.00
53719;BME280;39616;48.872;9.390;2023-05-14T02:08:39;98289.47;;;8.60;100.00
53719;BME280;39616;48.872;9.390;2023-05-14T02:11:10;98283.25;;;8.59;100.00
53719;BME280;39616;48.872;9.390;2023-05-14T02:13:40;98291.38;;;8.59;100.00
53719;BME280;39616;48.872;9.390;2023-05-14T02:16:10;98287.06;;;8.58;100.00
53719;BME280;39616;48.872;9.390;2023-05-14T02:18:40;98288.13;;;8.57;100.00
53719;BME280;39616;48.872;9.390;2023-05-14T02:21:11;98294.34;;;8.58;100.00
53719;BME280;39616;48.872;9.390;2023-05-14T02:23:41;98293.84;;;8.56;100.00
53719;BME280;39616;48.872;9.390;2023-05-14T02:26:12;98289.22;;;8.56;100.00
53719;BME280;39616;48.872;9.390;2023-05-14T02:28:42;98296.53;;;8.56;100.00
53719;BME280;39616;48.872;9.390;2023-05-14T02:31:12;98290.31;;;8.55;100.00
53719;BME280;39616;48.872;9.390;2023-05-14T02:33:44;98287.34;;;8.57;100.00
53719;BME280;39616;48.872;9.390;2023-05-14T02:36:14;98289.53;;;8.55;100.00
53719;BME280;39616;48.872;9.390;2023-05-14T02:38:44;98286.00;;;8.54;100.00
53719;BME280;39616;48.872;9.390;2023-05-14T02:41:18;98287.88;;;8.54;100.00
53719;BME280;39616;48.872;9.390;2023-05-14T02:43:48;98290.09;;;8.52;100.00
53719;BME280;39616;48.872;9.390;2023-05-14T02:46:18;98290.59;;;8.54;100.00
53719;BME280;39616;48.872;9.390;2023-05-14T02:48:49;98285.47;;;8.52;100.00
53719;BME280;39616;48.872;9.390;2023-05-14T02:51:19;98287.16;;;8.48;100.00
53719;BME280;39616;48.872;9.390;2023-05-14T02:53:50;98292.00;;;8.46;100.00
53719;BME280;39616;48.872;9.390;2023-05-14T02:56:20;98286.41;;;8.37;100.00
53719;BME280;39616;48.872;9.390;2023-05-14T02:58:51;98290.75;;;8.33;100.00
53719;BME280;39616;48.872;9.390;2023-05-14T03:01:21;98288.56;;;8.35;100.00
53719;BME280;39616;48.872;9.390;2023-05-14T03:03:52;98286.13;;;8.39;100.00
53719;BME280;39616;48.872;9.390;2023-05-14T03:06:22;98288.81;;;8.44;100.00
53719;BME280;39616;48.872;9.390;2023-05-14T03:08:52;98290.94;;;8.47;100.00
53719;BME280;39616;48.872;9.390;2023-05-14T03:11:22;98286.59;;;8.51;100.00
53719;BME280;39616;48.872;9.390;2023-05-14T03:13:53;98288.94;;;8.58;100.00
53719;BME280;39616;48.872;9.390;2023-05-14T03:16:23;98288.66;;;8.59;100.00
53719;BME280;39616;48.872;9.390;2023-05-14T03:18:53;98290.50;;;8.64;100.00
53719;BME280;39616;48.872;9.390;2023-05-14T03:21:24;98282.41;;;8.64;100.00
53719;BME280;39616;48.872;9.390;2023-05-14T03:23:54;98289.16;;;8.66;100.00
53719;BME280;39616;48.872;9.390;2023-05-14T03:26:24;98287.25;;;8.67;100.00
53719;BME280;39616;48.872;9.390;2023-05-14T03:28:55;98280.75;;;8.68;100.00
53719;BME280;39616;48.872;9.390;2023-05-14T03:31:25;98286.16;;;8.68;100.00
53719;BME280;39616;48.872;9.390;2023-05-14T03:33:55;98290.69;;;8.73;100.00
53719;BME280;39616;48.872;9.390;2023-05-14T03:36:26;98286.91;;;8.74;100.00
53719;BME280;39616;48.872;9.390;2023-05-14T03:38:58;98289.31;;;8.75;100.00
53719;BME280;39616;48.872;9.390;2023-05-14T03:41:29;98295.50;;;8.81;100.00
53719;BME280;39616;48.872;9.390;2023-05-14T03:43:59;98287.63;;;8.84;100.00
53719;BME280;39616;48.872;9.390;2023-05-14T03:46:29;98283.25;;;8.88;100.00
53719;BME280;39616;48.872;9.390;2023-05-14T03:49:00;98288.59;;;8.93;100.00
53719;BME280;39616;48.872;9.390;2023-05-14T03:51:30;98282.94;;;8.95;100.00
53719;BME280;39616;48.872;9.390;2023-05-14T03:54:01;98283.50;;;8.92;100.00
53719;BME280;39616;48.872;9.390;2023-05-14T03:56:32;98283.72;;;8.95;100.00
53719;BME280;39616;48.872;9.390;2023-05-14T03:59:02;98280.44;;;8.99;100.00
53719;BME280;39616;48.872;9.390;2023-05-14T04:01:32;98286.59;;;9.04;100.00
53719;BME280;39616;48.872;9.390;2023-05-14T04:04:03;98282.53;;;9.07;100.00
53719;BME280;39616;48.872;9.390;2023-05-14T04:06:33;98275.78;;;9.04;100.00
53719;BME280;39616;48.872;9.390;2023-05-14T04:09:04;98279.81;;;9.07;100.00
53719;BME280;39616;48.872;9.390;2023-05-14T04:11:34;98278.47;;;9.04;100.00
53719;BME280;39616;48.872;9.390;2023-05-14T04:14:04;98280.09;;;9.05;100.00
53719;BME280;39616;48.872;9.390;2023-05-14T04:16:35;98276.31;;;9.06;100.00
53719;BME280;39616;48.872;9.390;2023-05-14T04:19:05;98278.72;;;9.08;100.00
53719;BME280;39616;48.872;9.390;2023-05-14T04:21:36;98272.91;;;8.95;100.00
53719;BME280;39616;48.872;9.390;2023-05-14T04:24:06;98273.38;;;9.03;100.00
53719;BME280;39616;48.872;9.390;2023-05-14T04:26:37;98273.06;;;9.04;100.00
53719;BME280;39616;48.872;9.390;2023-05-14T04:29:07;98275.50;;;9.06;100.00
53719;BME280;39616;48.872;9.390;2023-05-14T04:31:37;98272.75;;;9.11;100.00
53719;BME280;39616;48.872;9.390;2023-05-14T04:34:08;98274.06;;;9.13;100.00
53719;BME280;39616;48.872;9.390;2023-05-14T04:36:38;98273.19;;;9.18;100.00
53719;BME280;39616;48.872;9.390;2023-05-14T04:39:09;98283.50;;;9.16;100.00
53719;BME280;39616;48.872;9.390;2023-05-14T04:41:41;98281.25;;;9.23;100.00
53719;BME280;39616;48.872;9.390;2023-05-14T04:44:12;98282.44;;;9.12;100.00
53719;BME280;39616;48.872;9.390;2023-05-14T04:46:42;98277.28;;;9.15;100.00
53719;BME280;39616;48.872;9.390;2023-05-14T04:49:13;98270.19;;;9.19;100.00
53719;BME280;39616;48.872;9.390;2023-05-14T04:51:43;98275.84;;;9.23;100.00
53719;BME280;39616;48.872;9.390;2023-05-14T04:54:13;98273.66;;;9.25;100.00
53719;BME280;39616;48.872;9.390;2023-05-14T04:56:43;98279.88;;;9.26;100.00
53719;BME280;39616;48.872;9.390;2023-05-14T04:59:14;98277.16;;;9.26;100.00
53719;BME280;39616;48.872;9.390;2023-05-14T05:01:45;98284.47;;;9.25;100.00
53719;BME280;39616;48.872;9.390;2023-05-14T05:04:15;98284.13;;;9.32;100.00
53719;BME280;39616;48.872;9.390;2023-05-14T05:06:46;98280.81;;;9.35;100.00
53719;BME280;39616;48.872;9.390;2023-05-14T05:09:16;98277.50;;;9.43;100.00
53719;BME280;39616;48.872;9.390;2023-05-14T05:11:47;98274.16;;;9.51;100.00
53719;BME280;39616;48.872;9.390;2023-05-14T05:14:17;98273.78;;;9.58;100.00
53719;BME280;39616;48.872;9.390;2023-05-14T05:16:47;98281.25;;;9.66;100.00
53719;BME280;39616;48.872;9.390;2023-05-14T05:19:17;98276.56;;;9.72;100.00
53719;BME280;39616;48.872;9.390;2023-05-14T05:21:48;98283.69;;;9.86;100.00
53719;BME280;39616;48.872;9.390;2023-05-14T05:24:18;98277.53;;;10.00;100.00
53719;BME280;39616;48.872;9.390;2023-05-14T05:26:48;98273.34;;;10.07;100.00
53719;BME280;39616;48.872;9.390;2023-05-14T05:29:21;98272.41;;;10.17;100.00
53719;BME280;39616;48.872;9.390;2023-05-14T05:31:52;98268.75;;;10.27;100.00
53719;BME280;39616;48.872;9.390;2023-05-14T05:34:22;98269.09;;;10.39;100.00
53719;BME280;39616;48.872;9.390;2023-05-14T05:36:52;98271.50;;;10.22;100.00
53719;BME280;39616;48.872;9.390;2023-05-14T05:39:23;98269.06;;;10.25;100.00
53719;BME280;39616;48.872;9.390;2023-05-14T05:41:53;98270.59;;;10.31;100.00
53719;BME280;39616;48.872;9.390;2023-05-14T05:44:23;98268.50;;;10.23;100.00
53719;BME280;39616;48.872;9.390;2023-05-14T05:46:54;98267.41;;;10.24;100.00
53719;BME280;39616;48.872;9.390;2023-05-14T05:49:26;98262.25;;;10.28;100.00
53719;BME280;39616;48.872;9.390;2023-05-14T05:51:56;98267.78;;;10.18;100.00
53719;BME280;39616;48.872;9.390;2023-05-14T05:54:26;98267.94;;;10.26;100.00
53719;BME280;39616;48.872;9.390;2023-05-14T05:56:58;98259.44;;;10.14;100.00
53719;BME280;39616;48.872;9.390;2023-05-14T05:59:28;98265.75;;;10.09;100.00
53719;BME280;39616;48.872;9.390;2023-05-14T06:01:58;98271.00;;;10.01;100.00
53719;BME280;39616;48.872;9.390;2023-05-14T06:04:29;98271.88;;;10.15;100.00
53719;BME280;39616;48.872;9.390;2023-05-14T06:06:59;98272.84;;;10.24;100.00
53719;BME280;39616;48.872;9.390;2023-05-14T06:09:29;98272.56;;;10.26;100.00
53719;BME280;39616;48.872;9.390;2023-05-14T06:12:00;98275.78;;;10.28;100.00
53719;BME280;39616;48.872;9.390;2023-05-14T06:14:30;98282.13;;;10.18;100.00
53719;BME280;39616;48.872;9.390;2023-05-14T06:17:00;98283.69;;;10.24;100.00
53719;BME280;39616;48.872;9.390;2023-05-14T06:19:30;98275.81;;;10.42;100.00
53719;BME280;39616;48.872;9.390;2023-05-14T06:22:01;98279.34;;;10.23;100.00
53719;BME280;39616;48.872;9.390;2023-05-14T06:24:31;98278.63;;;10.36;100.00
53719;BME280;39616;48.872;9.390;2023-05-14T06:27:02;98278.97;;;10.49;100.00
53719;BME280;39616;48.872;9.390;2023-05-14T06:29:32;98279.44;;;10.70;100.00
53719;BME280;39616;48.872;9.390;2023-05-14T06:32:03;98282.44;;;10.68;100.00
53719;BME280;39616;48.872;9.390;2023-05-14T06:34:34;98277.69;;;10.60;100.00
53719;BME280;39616;48.872;9.390;2023-05-14T06:37:04;98288.38;;;10.70;100.00
53719;BME280;39616;48.872;9.390;2023-05-14T06:39:36;98289.69;;;10.73;100.00
53719;BME280;39616;48.872;9.390;2023-05-14T06:42:07;98286.38;;;10.76;100.00
53719;BME280;39616;48.872;9.390;2023-05-14T06:44:37;98280.25;;;10.84;100.00
53719;BME280;39616;48.872;9.390;2023-05-14T06:47:07;98278.56;;;10.88;100.00
53719;BME280;39616;48.872;9.390;2023-05-14T06:49:38;98277.97;;;11.19;100.00
53719;BME280;39616;48.872;9.390;2023-05-14T06:52:08;98271.16;;;11.21;100.00
53719;BME280;39616;48.872;9.390;2023-05-14T06:54:38;98279.84;;;11.59;100.00
53719;BME280;39616;48.872;9.390;2023-05-14T06:57:09;98269.59;;;11.70;100.00
53719;BME280;39616;48.872;9.390;2023-05-14T06:59:39;98269.44;;;12.03;100.00
53719;BME280;39616;48.872;9.390;2023-05-14T07:02:09;98276.63;;;12.21;100.00
53719;BME280;39616;48.872;9.390;2023-05-14T07:04:40;98268.22;;;12.31;100.00
53719;BME280;39616;48.872;9.390;2023-05-14T07:07:10;98267.66;;;12.43;99.69
53719;BME280;39616;48.872;9.390;2023-05-14T07:09:44;98270.72;;;12.42;100.00
53719;BME280;39616;48.872;9.390;2023-05-14T07:12:14;98271.63;;;12.60;99.79
53719;BME280;39616;48.872;9.390;2023-05-14T07:14:44;98272.50;;;12.77;100.00
53719;BME280;39616;48.872;9.390;2023-05-14T07:17:15;98262.97;;;12.57;100.00
53719;BME280;39616;48.872;9.390;2023-05-14T07:19:46;98268.59;;;12.61;100.00
53719;BME280;39616;48.872;9.390;2023-05-14T07:22:16;98259.72;;;12.55;100.00
53719;BME280;39616;48.872;9.390;2023-05-14T07:24:46;98259.84;;;12.73;100.00
53719;BME280;39616;48.872;9.390;2023-05-14T07:27:17;98254.31;;;12.87;100.00
53719;BME280;39616;48.872;9.390;2023-05-14T07:29:48;98258.53;;;12.93;97.59
53719;BME280;39616;48.872;9.390;2023-05-14T07:32:19;98268.06;;;12.81;98.45
53719;BME280;39616;48.872;9.390;2023-05-14T07:34:49;98259.16;;;12.90;97.38
53719;BME280;39616;48.872;9.390;2023-05-14T07:37:19;98256.34;;;13.03;100.00
53719;BME280;39616;48.872;9.390;2023-05-14T07:39:52;98255.31;;;12.99;96.71
53719;BME280;39616;48.872;9.390;2023-05-14T07:42:22;98256.63;;;13.02;94.02
53719;BME280;39616;48.872;9.390;2023-05-14T07:44:53;98252.31;;;13.01;95.16
53719;BME280;39616;48.872;9.390;2023-05-14T07:47:23;98258.44;;;13.15;92.84
53719;BME280;39616;48.872;9.390;2023-05-14T07:49:54;98258.34;;;12.89;96.61
53719;BME280;39616;48.872;9.390;2023-05-14T07:52:25;98256.66;;;13.11;99.79
53719;BME280;39616;48.872;9.390;2023-05-14T07:54:55;98251.09;;;13.16;96.87
53719;BME280;39616;48.872;9.390;2023-05-14T07:57:26;98248.16;;;13.03;95.55
53719;BME280;39616;48.872;9.390;2023-05-14T07:59:56;98243.63;;;13.30;92.91
53719;BME280;39616;48.872;9.390;2023-05-14T08:02:26;98246.59;;;13.68;90.27
53719;BME280;39616;48.872;9.390;2023-05-14T08:04:57;98242.09;;;13.72;88.70
53719;BME280;39616;48.872;9.390;2023-05-14T08:07:28;98243.44;;;13.92;87.66
53719;BME280;39616;48.872;9.390;2023-05-14T08:09:59;98250.16;;;14.12;86.34
53719;BME280;39616;48.872;9.390;2023-05-14T08:12:29;98247.91;;;13.97;88.51
53719;BME280;39616;48.872;9.390;2023-05-14T08:14:59;98244.06;;;14.97;83.52
53719;BME280;39616;48.872;9.390;2023-05-14T08:17:30;98248.63;;;15.52;80.22
53719;BME280;39616;48.872;9.390;2023-05-14T08:20:00;98242.31;;;15.31;79.16
53719;BME280;39616;48.872;9.390;2023-05-14T08:22:31;98243.38;;;15.47;83.89
53719;BME280;39616;48.872;9.390;2023-05-14T08:25:02;98247.16;;;16.05;77.85
53719;BME280;39616;48.872;9.390;2023-05-14T08:27:32;98239.38;;;16.49;73.95
53719;BME280;39616;48.872;9.390;2023-05-14T08:30:03;98236.06;;;16.89;73.52
53719;BME280;39616;48.872;9.390;2023-05-14T08:32:34;98237.75;;;16.36;74.79
53719;BME280;39616;48.872;9.390;2023-05-14T08:35:05;98233.47;;;16.59;75.04
53719;BME280;39616;48.872;9.390;2023-05-14T08:37:35;98236.63;;;16.49;71.92
53719;BME280;39616;48.872;9.390;2023-05-14T08:40:06;98242.03;;;15.83;73.80
53719;BME280;39616;48.872;9.390;2023-05-14T08:42:38;98245.50;;;15.92;74.39
53719;BME280;39616;48.872;9.390;2023-05-14T08:45:19;98228.28;;;16.46;74.16
53719;BME280;39616;48.872;9.390;2023-05-14T08:47:50;98235.53;;;17.08;71.38
53719;BME280;39616;48.872;9.390;2023-05-14T08:50:20;98235.88;;;17.06;70.90
53719;BME280;39616;48.872;9.390;2023-05-14T08:52:52;98226.59;;;16.74;72.09
53719;BME280;39616;48.872;9.390;2023-05-14T08:55:22;98228.41;;;16.49;75.70
53719;BME280;39616;48.872;9.390;2023-05-14T08:57:52;98232.63;;;15.92;77.87
53719;BME280;39616;48.872;9.390;2023-05-14T09:00:23;98230.69;;;15.72;77.27
53719;BME280;39616;48.872;9.390;2023-05-14T09:02:54;98229.44;;;15.61;77.97
53719;BME280;39616;48.872;9.390;2023-05-14T09:05:24;98224.91;;;15.74;77.49
53719;BME280;39616;48.872;9.390;2023-05-14T09:07:55;98229.44;;;15.61;75.76
53719;BME280;39616;48.872;9.390;2023-05-14T09:10:25;98230.88;;;15.37;77.61
53719;BME280;39616;48.872;9.390;2023-05-14T09:12:56;98231.75;;;14.82;78.28
53719;BME280;39616;48.872;9.390;2023-05-14T09:15:27;98230.56;;;15.01;80.14
53719;BME280;39616;48.872;9.390;2023-05-14T09:17:58;98226.41;;;14.94;78.32
53719;BME280;39616;48.872;9.390;2023-05-14T09:20:29;98215.41;;;15.12;78.88
53719;BME280;39616;48.872;9.390;2023-05-14T09:23:00;98223.63;;;15.12;81.51
53719;BME280;39616;48.872;9.390;2023-05-14T09:25:31;98219.94;;;15.08;78.68
53719;BME280;39616;48.872;9.390;2023-05-14T09:28:05;98213.13;;;15.22;81.06
53719;BME280;39616;48.872;9.390;2023-05-14T09:30:37;98211.97;;;15.32;77.44
53719;BME280;39616;48.872;9.390;2023-05-14T09:33:07;98216.72;;;15.35;77.58
53719;BME280;39616;48.872;9.390;2023-05-14T09:35:39;98213.59;;;15.25;77.85
53719;BME280;39616;48.872;9.390;2023-05-14T09:38:12;98219.22;;;14.90;78.71
53719;BME280;39616;48.872;9.390;2023-05-14T09:40:42;98213.97;;;15.14;78.65
53719;BME280;39616;48.872;9.390;2023-05-14T09:43:12;98212.03;;;15.15;76.78
53719;BME280;39616;48.872;9.390;2023-05-14T09:45:43;98205.81;;;15.65;76.99
53719;BME280;39616;48.872;9.390;2023-05-14T09:48:13;98211.69;;;15.46;76.10
53719;BME280;39616;48.872;9.390;2023-05-14T09:50:45;98211.56;;;15.42;79.46
53719;BME280;39616;48.872;9.390;2023-05-14T09:53:15;98201.09;;;15.44;78.09
53719;BME280;39616;48.872;9.390;2023-05-14T09:55:46;98207.19;;;15.20;77.53
53719;BME280;39616;48.872;9.390;2023-05-14T09:58:18;98203.59;;;14.99;77.47
53719;BME280;39616;48.872;9.390;2023-05-14T10:00:49;98201.31;;;15.10;77.76
53719;BME280;39616;48.872;9.390;2023-05-14T10:03:21;98200.31;;;15.14;76.92
53719;BME280;39616;48.872;9.390;2023-05-14T10:05:55;98201.69;;;15.29;76.83
53719;BME280;39616;48.872;9.390;2023-05-14T10:08:34;98202.97;;;15.32;76.81
53719;BME280;39616;48.872;9.390;2023-05-14T10:11:13;98193.25;;;15.43;76.37
53719;BME280;39616;48.872;9.390;2023-05-14T10:13:47;98201.44;;;15.43;76.61
53719;BME280;39616;48.872;9.390;2023-05-14T10:16:26;98200.88;;;15.58;76.55
53719;BME280;39616;48.872;9.390;2023-05-14T10:19:07;98191.03;;;15.66;75.22
53719;BME280;39616;48.872;9.390;2023-05-14T10:21:39;98190.88;;;16.04;73.73
53719;BME280;39616;48.872;9.390;2023-05-14T10:24:10;98194.53;;;16.08;72.06
53719;BME280;39616;48.872;9.390;2023-05-14T10:26:42;98186.91;;;15.81;73.34
53719;BME280;39616;48.872;9.390;2023-05-14T10:29:12;98194.84;;;15.94;72.00
53719;BME280;39616;48.872;9.390;2023-05-14T10:31:53;98184.75;;;15.86;73.21
53719;BME280;39616;48.872;9.390;2023-05-14T10:34:39;98187.06;;;15.76;73.46
53719;BME280;39616;48.872;9.390;2023-05-14T10:37:11;98180.41;;;16.06;73.62
53719;BME280;39616;48.872;9.390;2023-05-14T10:39:57;98179.13;;;16.04;71.07
53719;BME280;39616;48.872;9.390;2023-05-14T10:42:28;98171.16;;;16.32;71.35
53719;BME280;39616;48.872;9.390;2023-05-14T10:45:04;98171.59;;;16.34;69.54
53719;BME280;39616;48.872;9.390;2023-05-14T10:47:42;98177.56;;;16.48;69.55
53719;BME280;39616;48.872;9.390;2023-05-14T10:50:14;98175.09;;;16.67;68.11
53719;BME280;39616;48.872;9.390;2023-05-14T10:52:45;98178.81;;;16.96;69.28
53719;BME280;39616;48.872;9.390;2023-05-14T10:55:15;98165.34;;;16.91;66.32
53719;BME280;39616;48.872;9.390;2023-05-14T10:57:46;98165.81;;;17.05;65.38
53719;BME280;39616;48.872;9.390;2023-05-14T11:00:16;98166.25;;;16.83;66.86
53719;BME280;39616;48.872;9.390;2023-05-14T11:02:46;98161.75;;;16.54;66.88
53719;BME280;39616;48.872;9.390;2023-05-14T11:05:17;98164.59;;;16.57;68.20
53719;BME280;39616;48.872;9.390;2023-05-14T11:07:48;98165.56;;;16.40;67.66
53719;BME280;39616;48.872;9.390;2023-05-14T11:10:19;98166.19;;;16.71;66.54
53719;BME280;39616;48.872;9.390;2023-05-14T11:12:51;98161.34;;;17.13;66.92
53719;BME280;39616;48.872;9.390;2023-05-14T11:15:23;98158.38;;;17.06;64.99
53719;BME280;39616;48.872;9.390;2023-05-14T11:17:54;98148.72;;;17.61;64.62
53719;BME280;39616;48.872;9.390;2023-05-14T11:20:24;98148.47;;;18.06;63.84
53719;BME280;39616;48.872;9.390;2023-05-14T11:22:54;98140.34;;;18.26;61.52
53719;BME280;39616;48.872;9.390;2023-05-14T11:25:25;98135.31;;;18.28;59.07
53719;BME280;39616;48.872;9.390;2023-05-14T11:27:55;98137.03;;;18.64;58.27
53719;BME280;39616;48.872;9.390;2023-05-14T11:30:30;98134.72;;;18.34;60.05
53719;BME280;39616;48.872;9.390;2023-05-14T11:33:00;98130.63;;;18.28;59.66
53719;BME280;39616;48.872;9.390;2023-05-14T11:35:31;98134.94;;;19.05;60.00
53719;BME280;39616;48.872;9.390;2023-05-14T11:38:01;98127.59;;;18.93;59.10
53719;BME280;39616;48.872;9.390;2023-05-14T11:40:32;98131.13;;;18.94;58.04
53719;BME280;39616;48.872;9.390;2023-05-14T11:43:02;98135.66;;;18.86;58.19
53719;BME280;39616;48.872;9.390;2023-05-14T11:45:32;98136.59;;;19.10;56.80
53719;BME280;39616;48.872;9.390;2023-05-14T11:48:10;98134.53;;;18.59;59.21
53719;BME280;39616;48.872;9.390;2023-05-14T11:50:47;98128.47;;;18.97;56.91
53719;BME280;39616;48.872;9.390;2023-05-14T11:53:23;98132.94;;;18.26;58.54
53719;BME280;39616;48.872;9.390;2023-05-14T11:55:55;98126.22;;;18.40;59.31
53719;BME280;39616;48.872;9.390;2023-05-14T11:58:26;98125.88;;;18.57;58.00
53719;BME280;39616;48.872;9.390;2023-05-14T12:00:57;98124.19;;;19.00;58.52
53719;BME280;39616;48.872;9.390;2023-05-14T12:03:29;98114.81;;;18.85;57.33
53719;BME280;39616;48.872;9.390;2023-05-14T12:06:01;98121.00;;;18.66;58.39
53719;BME280;39616;48.872;9.390;2023-05-14T12:08:35;98120.00;;;18.27;58.12
53719;BME280;39616;48.872;9.390;2023-05-14T12:11:07;98112.09;;;18.09;59.23
53719;BME280;39616;48.872;9.390;2023-05-14T12:13:38;98118.47;;;18.14;59.44
53719;BME280;39616;48.872;9.390;2023-05-14T12:16:08;98103.53;;;18.27;60.14
53719;BME280;39616;48.872;9.390;2023-05-14T12:18:39;98107.06;;;18.12;59.58
53719;BME280;39616;48.872;9.390;2023-05-14T12:21:09;98107.13;;;18.15;59.55
53719;BME280;39616;48.872;9.390;2023-05-14T12:23:41;98112.09;;;18.09;60.63
53719;BME280;39616;48.872;9.390;2023-05-14T12:26:11;98102.94;;;17.90;60.71
53719;BME280;39616;48.872;9.390;2023-05-14T12:28:41;98103.34;;;17.76;60.46
53719;BME280;39616;48.872;9.390;2023-05-14T12:31:14;98099.84;;;17.91;61.03
53719;BME280;39616;48.872;9.390;2023-05-14T12:33:44;98094.16;;;18.28;59.13
53719;BME280;39616;48.872;9.390;2023-05-14T12:36:14;98092.81;;;18.22;58.64
53719;BME280;39616;48.872;9.390;2023-05-14T12:38:45;98093.88;;;18.33;58.79
53719;BME280;39616;48.872;9.390;2023-05-14T12:41:18;98090.53;;;18.24;58.42
53719;BME280;39616;48.872;9.390;2023-05-14T12:43:48;98097.38;;;17.74;58.76
53719;BME280;39616;48.872;9.390;2023-05-14T12:46:19;98086.28;;;18.42;57.74
53719;BME280;39616;48.872;9.390;2023-05-14T12:48:49;98078.41;;;18.72;57.38
53719;BME280;39616;48.872;9.390;2023-05-14T12:51:20;98080.00;;;19.24;57.42
53719;BME280;39616;48.872;9.390;2023-05-14T12:53:50;98082.84;;;19.47;54.81
53719;BME280;39616;48.872;9.390;2023-05-14T12:56:23;98077.44;;;18.65;56.57
53719;BME280;39616;48.872;9.390;2023-05-14T12:58:57;98072.31;;;18.63;57.78
53719;BME280;39616;48.872;9.390;2023-05-14T13:01:27;98070.09;;;19.20;56.81
53719;BME280;39616;48.872;9.390;2023-05-14T13:03:57;98063.28;;;19.14;56.18
53719;BME280;39616;48.872;9.390;2023-05-14T13:06:28;98064.66;;;19.23;55.35
53719;BME280;39616;48.872;9.390;2023-05-14T13:08:58;98063.25;;;18.94;56.43
53719;BME280;39616;48.872;9.390;2023-05-14T13:11:31;98066.78;;;18.16;59.39
53719;BME280;39616;48.872;9.390;2023-05-14T13:14:01;98054.50;;;18.41;58.81
53719;BME280;39616;48.872;9.390;2023-05-14T13:16:32;98049.44;;;18.27;59.15
53719;BME280;39616;48.872;9.390;2023-05-14T13:19:03;98047.91;;;17.82;58.82
53719;BME280;39616;48.872;9.390;2023-05-14T13:21:33;98056.06;;;18.10;57.72